Time,TemperatureF,DewpointF,PressureIn,WindDirection,WindDirectionDegrees,WindSpeedMPH,WindSpeedGustMPH,Humidity,HourlyPrecipIn,Conditions,Clouds,dailyrainin,SoftwareType,DateUTC
2013-02-18 00:08:00,10.2,3.6,30.02,WNW,292,0.0,-999.0,74,-99.99,,,0.00,Acu-Link.com,2013-02-18 05:08:00,
2013-02-18 00:24:00,10.9,4.0,30.03,WNW,292,0.0,-999.0,73,-99.99,,,0.00,Acu-Link.com,2013-02-18 05:24:00,
2013-02-18 00:39:00,10.6,4.3,30.03,WNW,292,0.0,-999.0,75,-99.99,,,0.00,Acu-Link.com,2013-02-18 05:39:00,
2013-02-18 00:55:00,13.5,5.6,30.04,SSE,157,2.2,-999.0,70,-99.99,,,0.00,Acu-Link.com,2013-02-18 05:55:00,
2013-02-18 01:10:00,14.2,5.9,30.04,SSE,157,2.2,-999.0,69,-99.99,,,0.00,Acu-Link.com,2013-02-18 06:10:00,
2013-02-18 01:25:00,14.2,6.2,30.04,SSE,157,2.7,-999.0,70,-99.99,,,0.00,Acu-Link.com,2013-02-18 06:25:00,
2013-02-18 01:41:00,14.4,6.1,30.03,SSE,157,0.0,-999.0,69,-99.99,,,0.00,Acu-Link.com,2013-02-18 06:41:00,
2013-02-18 01:56:00,13.6,6.0,30.04,SSE,157,0.0,-999.0,71,-99.99,,,0.00,Acu-Link.com,2013-02-18 06:56:00,
2013-02-18 02:11:00,13.5,6.2,30.04,SSE,157,0.0,-999.0,72,-99.99,,,0.00,Acu-Link.com,2013-02-18 07:11:00,
2013-02-18 02:27:00,12.7,6.0,30.03,SSE,157,0.0,-999.0,74,-99.99,,,0.00,Acu-Link.com,2013-02-18 07:27:00,
2013-02-18 02:42:00,12.9,6.5,30.03,SSE,157,0.0,-999.0,75,-99.99,,,0.00,Acu-Link.com,2013-02-18 07:42:00,
2013-02-18 02:57:00,13.1,7.0,30.03,SSE,157,0.0,-999.0,76,-99.99,,,0.00,Acu-Link.com,2013-02-18 07:57:00,
2013-02-18 03:12:00,12.2,6.4,30.02,SSE,157,1.7,-999.0,77,-99.99,,,0.00,Acu-Link.com,2013-02-18 08:12:00,
2013-02-18 03:28:00,12.4,6.3,30.02,SSE,157,0.0,-999.0,76,-99.99,,,0.00,Acu-Link.com,2013-02-18 08:28:00,
2013-02-18 03:43:00,12.2,6.4,30.02,SSE,157,0.0,-999.0,77,-99.99,,,0.00,Acu-Link.com,2013-02-18 08:43:00,
2013-02-18 03:58:00,11.7,6.7,30.01,SSE,157,0.0,-999.0,80,-99.99,,,0.00,Acu-Link.com,2013-02-18 08:58:00,
2013-02-18 04:18:00,12.0,7.0,30.01,SSE,157,0.0,-999.0,80,-99.99,,,0.00,Acu-Link.com,2013-02-18 09:18:00,
2013-02-18 04:33:00,12.9,7.1,30.00,SSE,157,0.0,-999.0,77,-99.99,,,0.00,Acu-Link.com,2013-02-18 09:33:00,
2013-02-18 04:49:00,11.8,6.6,30.00,SSE,157,0.0,-999.0,79,-99.99,,,0.00,Acu-Link.com,2013-02-18 09:49:00,
2013-02-18 05:04:00,12.2,7.2,29.99,SSE,157,0.0,-999.0,80,-99.99,,,0.00,Acu-Link.com,2013-02-18 10:04:00,
2013-02-18 05:19:00,13.1,8.4,29.99,SSE,157,0.0,-999.0,81,-99.99,,,0.00,Acu-Link.com,2013-02-18 10:19:00,
2013-02-18 05:34:00,13.3,8.3,29.99,SSE,157,0.0,-999.0,80,-99.99,,,0.00,Acu-Link.com,2013-02-18 10:34:00,
2013-02-18 05:50:00,13.6,8.9,29.98,SSE,157,0.0,-999.0,81,-99.99,,,0.00,Acu-Link.com,2013-02-18 10:50:00,
2013-02-18 06:05:00,17.2,11.0,29.97,SSE,157,2.7,-999.0,76,-99.99,,,0.00,Acu-Link.com,2013-02-18 11:05:00,
2013-02-18 06:20:00,17.6,11.1,29.97,SSE,157,1.1,-999.0,75,-99.99,,,0.00,Acu-Link.com,2013-02-18 11:20:00,
2013-02-18 06:36:00,18.1,11.8,29.96,SSE,157,2.7,-999.0,76,-99.99,,,0.00,Acu-Link.com,2013-02-18 11:36:00,
2013-02-18 06:51:00,18.7,12.1,29.96,South,180,1.7,-999.0,75,-99.99,,,0.00,Acu-Link.com,2013-02-18 11:51:00,
2013-02-18 07:22:00,18.7,12.4,29.95,East,90,2.7,-999.0,76,-99.99,,,0.00,Acu-Link.com,2013-02-18 12:22:00,
2013-02-18 07:37:00,19.6,12.7,29.94,South,180,5.8,-999.0,74,-99.99,,,0.00,Acu-Link.com,2013-02-18 12:37:00,
2013-02-18 07:52:00,20.5,12.9,29.94,South,180,5.3,-999.0,72,-99.99,,,0.00,Acu-Link.com,2013-02-18 12:52:00,
2013-02-18 08:08:00,21.0,12.8,29.93,South,180,4.2,-999.0,70,-99.99,,,0.00,Acu-Link.com,2013-02-18 13:08:00,
2013-02-18 08:23:00,21.4,12.5,29.93,SSE,157,8.3,-999.0,68,-99.99,,,0.00,Acu-Link.com,2013-02-18 13:23:00,
2013-02-18 08:38:00,21.9,13.0,29.93,South,180,4.7,-999.0,68,-99.99,,,0.00,Acu-Link.com,2013-02-18 13:38:00,
2013-02-18 08:53:00,22.8,12.8,29.92,East,90,6.3,-999.0,65,-99.99,,,0.00,Acu-Link.com,2013-02-18 13:53:00,
2013-02-18 09:09:00,23.4,12.7,29.91,ESE,112,5.8,-999.0,63,-99.99,,,0.00,Acu-Link.com,2013-02-18 14:09:00,
2013-02-18 09:24:00,23.7,12.6,29.90,ESE,112,5.3,-999.0,62,-99.99,,,0.00,Acu-Link.com,2013-02-18 14:24:00,
2013-02-18 09:39:00,24.8,12.5,29.89,SSE,157,10.9,-999.0,59,-99.99,,,0.00,Acu-Link.com,2013-02-18 14:39:00,
2013-02-18 09:54:00,25.9,13.2,29.88,SSE,157,9.4,-999.0,58,-99.99,,,0.00,Acu-Link.com,2013-02-18 14:54:00,
2013-02-18 10:10:00,26.6,13.4,29.87,ESE,112,5.3,-999.0,57,-99.99,,,0.00,Acu-Link.com,2013-02-18 15:10:00,
2013-02-18 10:25:00,28.0,13.9,29.86,South,180,10.4,-999.0,55,-99.99,,,0.00,Acu-Link.com,2013-02-18 15:25:00,
2013-02-18 10:40:00,28.2,13.7,29.85,South,180,9.9,-999.0,54,-99.99,,,0.00,Acu-Link.com,2013-02-18 15:40:00,
2013-02-18 10:55:00,29.3,14.3,29.85,SE,135,6.3,-999.0,53,-99.99,,,0.00,Acu-Link.com,2013-02-18 15:55:00,
2013-02-18 11:11:00,29.8,14.8,29.83,South,180,9.9,-999.0,53,-99.99,,,0.00,Acu-Link.com,2013-02-18 16:11:00,
2013-02-18 11:26:00,29.7,15.1,29.83,SSE,157,5.3,-999.0,54,-99.99,,,0.00,Acu-Link.com,2013-02-18 16:26:00,
2013-02-18 11:41:00,30.2,15.6,29.82,SSE,157,7.3,-999.0,54,-99.99,,,0.00,Acu-Link.com,2013-02-18 16:41:00,
2013-02-18 11:57:00,29.7,14.7,29.81,SSE,157,9.4,-999.0,53,-99.99,,,0.00,Acu-Link.com,2013-02-18 16:57:00,
2013-02-18 12:12:00,30.9,15.8,29.80,South,180,6.3,-999.0,53,-99.99,,,0.00,Acu-Link.com,2013-02-18 17:12:00,
2013-02-18 12:27:00,31.3,16.2,29.79,South,180,10.4,-999.0,53,-99.99,,,0.00,Acu-Link.com,2013-02-18 17:27:00,
2013-02-18 12:43:00,31.8,16.6,29.78,South,180,6.8,-999.0,53,-99.99,,,0.00,Acu-Link.com,2013-02-18 17:43:00,
2013-02-18 12:58:00,31.8,16.2,29.76,SSE,157,10.9,-999.0,52,-99.99,,,0.00,Acu-Link.com,2013-02-18 17:58:00,
2013-02-18 13:13:00,32.0,16.4,29.75,South,180,11.4,-999.0,52,-99.99,,,0.00,Acu-Link.com,2013-02-18 18:13:00,
2013-02-18 13:28:00,32.4,17.2,29.74,South,180,11.9,-999.0,53,-99.99,,,0.00,Acu-Link.com,2013-02-18 18:28:00,
2013-02-18 13:44:00,33.6,17.9,29.73,South,180,10.9,-999.0,52,-99.99,,,0.00,Acu-Link.com,2013-02-18 18:44:00,
2013-02-18 13:59:00,33.4,18.1,29.73,South,180,7.8,-999.0,53,-99.99,,,0.00,Acu-Link.com,2013-02-18 18:59:00,
2013-02-18 14:14:00,33.6,18.3,29.72,SSE,157,5.3,-999.0,53,-99.99,,,0.00,Acu-Link.com,2013-02-18 19:14:00,
2013-02-18 14:30:00,34.7,18.9,29.71,South,180,6.3,-999.0,52,-99.99,,,0.00,Acu-Link.com,2013-02-18 19:30:00,
2013-02-18 14:45:00,35.2,18.9,29.71,South,180,9.9,-999.0,51,-99.99,,,0.00,Acu-Link.com,2013-02-18 19:45:00,
2013-02-18 15:00:00,35.8,19.5,29.69,South,180,9.9,-999.0,51,-99.99,,,0.00,Acu-Link.com,2013-02-18 20:00:00,
2013-02-18 15:16:00,35.8,19.9,29.69,South,180,7.3,-999.0,52,-99.99,,,0.00,Acu-Link.com,2013-02-18 20:16:00,
2013-02-18 15:31:00,36.1,20.2,29.68,SSW,202,4.7,-999.0,52,-99.99,,,0.00,Acu-Link.com,2013-02-18 20:31:00,
2013-02-18 15:46:00,36.5,20.6,29.67,SE,135,6.3,-999.0,52,-99.99,,,0.00,Acu-Link.com,2013-02-18 20:46:00,
2013-02-18 16:02:00,36.3,20.8,29.66,SSE,157,4.7,-999.0,53,-99.99,,,0.00,Acu-Link.com,2013-02-18 21:02:00,
2013-02-18 16:17:00,36.1,21.5,29.65,ESE,112,2.2,-999.0,55,-99.99,,,0.00,Acu-Link.com,2013-02-18 21:17:00,
2013-02-18 16:32:00,36.1,21.9,29.64,SSE,157,3.7,-999.0,56,-99.99,,,0.00,Acu-Link.com,2013-02-18 21:32:00,
2013-02-18 16:48:00,36.1,22.4,29.64,SSE,157,9.4,-999.0,57,-99.99,,,0.00,Acu-Link.com,2013-02-18 21:48:00,
2013-02-18 17:03:00,36.1,22.8,29.63,South,180,7.3,-999.0,58,-99.99,,,0.00,Acu-Link.com,2013-02-18 22:03:00,
2013-02-18 17:18:00,36.1,23.6,29.61,South,180,9.4,-999.0,60,-99.99,,,0.00,Acu-Link.com,2013-02-18 22:18:00,
2013-02-18 17:33:00,36.1,23.6,29.62,South,180,7.3,-999.0,60,-99.99,,,0.00,Acu-Link.com,2013-02-18 22:33:00,
2013-02-18 17:49:00,36.3,24.2,29.62,South,180,6.8,-999.0,61,-99.99,,,0.00,Acu-Link.com,2013-02-18 22:49:00,
2013-02-18 18:04:00,36.7,24.9,29.61,SSE,157,6.3,-999.0,62,-99.99,,,0.00,Acu-Link.com,2013-02-18 23:04:00,
2013-02-18 18:19:00,36.9,25.5,29.61,SE,135,6.3,-999.0,63,-99.99,,,0.00,Acu-Link.com,2013-02-18 23:19:00,
2013-02-18 18:34:00,37.2,25.8,29.60,South,180,3.2,-999.0,63,-99.99,,,0.00,Acu-Link.com,2013-02-18 23:34:00,
2013-02-18 18:50:00,37.6,26.2,29.60,SSE,157,4.7,-999.0,63,-99.99,,,0.00,Acu-Link.com,2013-02-18 23:50:00,
2013-02-18 19:05:00,37.9,26.4,29.60,SSE,157,5.3,-999.0,63,-99.99,,,0.00,Acu-Link.com,2013-02-19 00:05:00,
2013-02-18 19:20:00,38.1,27.0,29.59,SSE,157,4.2,-999.0,64,-99.99,,,0.00,Acu-Link.com,2013-02-19 00:20:00,
2013-02-18 19:36:00,37.9,26.8,29.58,ESE,112,1.1,-999.0,64,-99.99,,,0.00,Acu-Link.com,2013-02-19 00:36:00,
2013-02-18 19:51:00,37.4,26.7,29.58,SE,135,1.7,-999.0,65,-99.99,,,0.00,Acu-Link.com,2013-02-19 00:51:00,
2013-02-18 20:06:00,37.0,27.1,29.57,ESE,112,0.0,-999.0,67,-99.99,,,0.00,Acu-Link.com,2013-02-19 01:06:00,
2013-02-18 20:22:00,36.9,27.3,29.56,ESE,112,0.0,-999.0,68,-99.99,,,0.00,Acu-Link.com,2013-02-19 01:22:00,
2013-02-18 20:37:00,36.5,27.3,29.55,ESE,112,0.0,-999.0,69,-99.99,,,0.00,Acu-Link.com,2013-02-19 01:37:00,
2013-02-18 20:52:00,36.3,27.5,29.54,ESE,112,0.0,-999.0,70,-99.99,,,0.00,Acu-Link.com,2013-02-19 01:52:00,
2013-02-18 21:08:00,37.8,28.6,29.53,ESE,112,0.0,-999.0,69,-99.99,,,0.00,Acu-Link.com,2013-02-19 02:08:00,
2013-02-18 21:23:00,38.1,28.8,29.52,SSW,202,2.7,-999.0,69,-99.99,,,0.00,Acu-Link.com,2013-02-19 02:23:00,
2013-02-18 21:38:00,39.9,29.1,29.51,ESE,112,1.7,-999.0,65,-99.99,,,0.00,Acu-Link.com,2013-02-19 02:38:00,
2013-02-18 21:53:00,42.3,29.4,29.50,SSW,202,9.4,-999.0,60,-99.99,,,0.00,Acu-Link.com,2013-02-19 02:53:00,
2013-02-18 22:08:00,43.3,29.5,29.49,SSE,157,5.8,-999.0,58,-99.99,,,0.00,Acu-Link.com,2013-02-19 03:08:00,
2013-02-18 22:24:00,43.0,29.7,29.48,South,180,6.8,-999.0,59,-99.99,,,0.00,Acu-Link.com,2013-02-19 03:24:00,
2013-02-18 22:39:00,43.2,29.9,29.48,South,180,9.9,-999.0,59,-99.99,,,0.00,Acu-Link.com,2013-02-19 03:39:00,
2013-02-18 22:54:00,43.3,29.9,29.47,SSW,202,8.3,-999.0,59,-99.99,,,0.00,Acu-Link.com,2013-02-19 03:54:00,
2013-02-18 23:10:00,43.9,30.1,29.46,SSW,202,10.9,-999.0,58,-99.99,,,0.00,Acu-Link.com,2013-02-19 04:10:00,
2013-02-18 23:25:00,43.7,29.9,29.44,South,180,7.8,-999.0,58,-99.99,,,0.00,Acu-Link.com,2013-02-19 04:25:00,
2013-02-18 23:40:00,43.5,30.1,29.43,South,180,7.8,-999.0,59,-99.99,,,0.00,Acu-Link.com,2013-02-19 04:40:00,
2013-02-18 23:55:00,43.5,30.1,29.43,SSW,202,7.8,-999.0,59,-99.99,,,0.00,Acu-Link.com,2013-02-19 04:55:00,